Geneva, Switzerland

9:48 PM CET on December 17, 2014 (GMT +0100)
International Sector - Geneva | Change Station
CLOSE
Current Station
Personal Weather Station
Location: GRAND-SACONNEX, GENEVE
Elevation: 1377 ft
Nearby Weather Stations

Elev 1377 ft 46.23 °N, 6.13 °E | Updated 5 minutes ago

Light Drizzle
Light Drizzle
40.3 °F
Feels Like 40 °F
N
0.0
Wind Variable Wind from WSW

Today
High -- | Low -- °F
--% Chance of Precip.
Yesterday
High -- | Low -- °F
Precip. -- in
8:12 AM 4:50 PM
Waning Crescent, 20% visible
Pressure 30.06 in
Visibility 6.2 miles
Clouds Few 4000 ft
Overcast 5200 ft
Windchill 40 °F
Dew Point 39 °F
Humidity 95%
Rainfall 0.05 in
Snow Depth Not available.
UV 0 out of 12
Pollen Not available.
Air Quality Not available.
Flu Activity Not available.
METAR LFLP 172030Z AUTO VRB04KT 9999 -DZ FEW040 OVC052 05/03 Q1018

More Conditions Fewer Conditions

Pressure 30.06 in
Visibility 6.2 miles
Clouds Few 4000 ft
Overcast 5200 ft
Windchill 40 °F
Dew Point 39 °F
Humidity 95%
Rainfall 0.05 in
Snow Depth Not available.
UV 0 out of 12
Pollen Not available.
Air Quality Not available.
Flu Activity Not available.
METAR LFLP 172030Z AUTO VRB04KT 9999 -DZ FEW040 OVC052 05/03 Q1018

More Conditions Fewer Conditions

10-Day Weather Forecast

Almanac

Astronomy

Dec. 17, 2014 Rise Set
Actual Time
Civil Twilight
Nautical Twilight
Astronomical Twilight
Moon
Length of Visible Light
Length of Day
Tomorrow will be .
, % of the Moon is Illuminated

Today's Extremes

Country Highs Country Lows

Community

WunderPhotos

Upload Photos

1,778,803 photos uploaded!

WunderBlogs® & News

Nearby

Air Quality

  Air Quality AQ Index Pollutant
Not available.

Snow Depth

Station Depth Elevation

Earthquake Activity

City Distance Mag. Time & Date
Minimum magnitude displayed is 2.5.

Coastal Water Temperatures

Place Temperature

Nearby Weather Stations